sensor_id;sensor_type;location;lat;lon;timestamp;pressure;altitude;pressure_sealevel;temperature;humidity
45525;BME280;31437;58.350;13.828;2022-09-29T01:11:49;98984.50;;;7.59;100.00
45525;BME280;31437;58.350;13.828;2022-09-29T01:14:16;98983.78;;;7.57;100.00
45525;BME280;31437;58.350;13.828;2022-09-29T01:16:43;98988.25;;;7.55;100.00
45525;BME280;31437;58.350;13.828;2022-09-29T01:47:42;99015.84;;;7.44;100.00
45525;BME280;31437;58.350;13.828;2022-09-29T02:26:28;99058.66;;;7.26;100.00
45525;BME280;31437;58.350;13.828;2022-09-29T07:15:12;99202.22;;;8.15;100.00
45525;BME280;31437;58.350;13.828;2022-09-29T07:17:37;99191.78;;;8.15;100.00
45525;BME280;31437;58.350;13.828;2022-09-29T07:45:54;99156.94;;;8.29;100.00
45525;BME280;31437;58.350;13.828;2022-09-29T07:56:14;99146.81;;;8.24;100.00
45525;BME280;31437;58.350;13.828;2022-09-29T07:58:39;99140.63;;;8.25;100.00
45525;BME280;31437;58.350;13.828;2022-09-29T08:01:07;99142.41;;;8.25;100.00
45525;BME280;31437;58.350;13.828;2022-09-29T08:03:35;99134.56;;;8.25;100.00
45525;BME280;31437;58.350;13.828;2022-09-29T08:06:00;99131.00;;;8.26;100.00
45525;BME280;31437;58.350;13.828;2022-09-29T08:08:25;99119.84;;;8.24;100.00
45525;BME280;31437;58.350;13.828;2022-09-29T08:10:51;99129.53;;;8.22;100.00
45525;BME280;31437;58.350;13.828;2022-09-29T08:13:17;99119.16;;;8.20;100.00
45525;BME280;31437;58.350;13.828;2022-09-29T08:15:43;99119.09;;;8.22;100.00
45525;BME280;31437;58.350;13.828;2022-09-29T08:18:08;99110.13;;;8.26;100.00
45525;BME280;31437;58.350;13.828;2022-09-29T08:20:34;99107.13;;;8.32;100.00
45525;BME280;31437;58.350;13.828;2022-09-29T08:23:00;99094.72;;;8.35;100.00
45525;BME280;31437;58.350;13.828;2022-09-29T08:25:25;99096.28;;;8.38;100.00
45525;BME280;31437;58.350;13.828;2022-09-29T08:27:51;99085.78;;;8.39;100.00
45525;BME280;31437;58.350;13.828;2022-09-29T08:30:17;99086.63;;;8.40;100.00
45525;BME280;31437;58.350;13.828;2022-09-29T08:32:42;99084.63;;;8.44;100.00
45525;BME280;31437;58.350;13.828;2022-09-29T08:35:09;99088.66;;;8.49;100.00
45525;BME280;31437;58.350;13.828;2022-09-29T08:37:34;99079.59;;;8.55;100.00
45525;BME280;31437;58.350;13.828;2022-09-29T08:40:00;99072.09;;;8.63;100.00
45525;BME280;31437;58.350;13.828;2022-09-29T08:47:34;99050.16;;;8.66;100.00
45525;BME280;31437;58.350;13.828;2022-09-29T08:50:02;99033.72;;;8.63;100.00
45525;BME280;31437;58.350;13.828;2022-09-29T08:52:32;99031.75;;;8.67;100.00
45525;BME280;31437;58.350;13.828;2022-09-29T08:55:02;99020.06;;;8.73;100.00
45525;BME280;31437;58.350;13.828;2022-09-29T08:57:33;99001.66;;;8.74;100.00
45525;BME280;31437;58.350;13.828;2022-09-29T09:00:00;98992.47;;;8.81;100.00
45525;BME280;31437;58.350;13.828;2022-09-29T09:07:44;98958.94;;;9.01;100.00
45525;BME280;31437;58.350;13.828;2022-09-29T09:10:17;98947.72;;;9.12;100.00
45525;BME280;31437;58.350;13.828;2022-09-29T09:12:58;98931.50;;;9.19;100.00
45525;BME280;31437;58.350;13.828;2022-09-29T09:20:33;98891.91;;;9.49;100.00
45525;BME280;31437;58.350;13.828;2022-09-29T09:23:10;98877.91;;;9.50;100.00
45525;BME280;31437;58.350;13.828;2022-09-29T09:25:56;98859.56;;;9.50;100.00
45525;BME280;31437;58.350;13.828;2022-09-29T09:28:28;98839.91;;;9.45;100.00
45525;BME280;31437;58.350;13.828;2022-09-29T09:31:13;98836.75;;;9.40;100.00
45525;BME280;31437;58.350;13.828;2022-09-29T09:33:42;98827.97;;;9.41;100.00
45525;BME280;31437;58.350;13.828;2022-09-29T09:41:20;98793.66;;;10.05;100.00
45525;BME280;31437;58.350;13.828;2022-09-29T09:44:10;98792.09;;;10.02;100.00
45525;BME280;31437;58.350;13.828;2022-09-29T09:46:35;98795.81;;;10.11;100.00
45525;BME280;31437;58.350;13.828;2022-09-29T09:49:31;98782.13;;;10.07;100.00
45525;BME280;31437;58.350;13.828;2022-09-29T09:54:39;98778.81;;;10.16;100.00
45525;BME280;31437;58.350;13.828;2022-09-29T09:57:22;98784.63;;;10.33;100.00
45525;BME280;31437;58.350;13.828;2022-09-29T10:02:29;98777.22;;;10.38;100.00
45525;BME280;31437;58.350;13.828;2022-09-29T10:04:55;98789.16;;;10.42;100.00
45525;BME280;31437;58.350;13.828;2022-09-29T10:07:21;98774.59;;;10.27;100.00
45525;BME280;31437;58.350;13.828;2022-09-29T10:09:50;98771.31;;;10.12;100.00
45525;BME280;31437;58.350;13.828;2022-09-29T10:12:16;98763.00;;;10.18;100.00
45525;BME280;31437;58.350;13.828;2022-09-29T10:15:03;98764.25;;;10.36;100.00
45525;BME280;31437;58.350;13.828;2022-09-29T10:17:31;98764.28;;;10.48;100.00
45525;BME280;31437;58.350;13.828;2022-09-29T10:30:33;98754.03;;;10.44;100.00
45525;BME280;31437;58.350;13.828;2022-09-29T10:32:57;98757.72;;;10.53;100.00
45525;BME280;31437;58.350;13.828;2022-09-29T10:35:27;98763.19;;;10.39;100.00
45525;BME280;31437;58.350;13.828;2022-09-29T10:38:00;98756.47;;;10.23;100.00
45525;BME280;31437;58.350;13.828;2022-09-29T10:40:26;98760.59;;;10.15;100.00
45525;BME280;31437;58.350;13.828;2022-09-29T10:42:52;98761.34;;;9.93;100.00
45525;BME280;31437;58.350;13.828;2022-09-29T10:48:28;98759.47;;;10.30;100.00
45525;BME280;31437;58.350;13.828;2022-09-29T10:50:29;98754.75;;;10.58;100.00
45525;BME280;31437;58.350;13.828;2022-09-29T10:52:55;98745.81;;;10.60;100.00
45525;BME280;31437;58.350;13.828;2022-09-29T10:55:25;98746.53;;;10.51;100.00
45525;BME280;31437;58.350;13.828;2022-09-29T10:57:51;98750.81;;;10.63;100.00
45525;BME280;31437;58.350;13.828;2022-09-29T11:00:38;98750.00;;;10.74;100.00
45525;BME280;31437;58.350;13.828;2022-09-29T11:03:07;98741.41;;;10.83;100.00
45525;BME280;31437;58.350;13.828;2022-09-29T11:05:47;98738.06;;;10.93;100.00
45525;BME280;31437;58.350;13.828;2022-09-29T11:08:13;98749.03;;;10.98;100.00
45525;BME280;31437;58.350;13.828;2022-09-29T11:10:39;98737.72;;;10.86;100.00
45525;BME280;31437;58.350;13.828;2022-09-29T11:13:29;98737.91;;;10.94;100.00
45525;BME280;31437;58.350;13.828;2022-09-29T11:15:53;98738.88;;;11.16;100.00
45525;BME280;31437;58.350;13.828;2022-09-29T11:18:32;98744.13;;;11.04;100.00
45525;BME280;31437;58.350;13.828;2022-09-29T11:21:01;98739.59;;;11.06;100.00
45525;BME280;31437;58.350;13.828;2022-09-29T11:31:26;98741.31;;;10.74;100.00
45525;BME280;31437;58.350;13.828;2022-09-29T11:36:43;98749.28;;;10.72;100.00
45525;BME280;31437;58.350;13.828;2022-09-29T11:42:19;98753.94;;;10.68;100.00
45525;BME280;31437;58.350;13.828;2022-09-29T11:44:59;98752.63;;;10.74;100.00
45525;BME280;31437;58.350;13.828;2022-09-29T11:49:54;98759.16;;;10.68;100.00
45525;BME280;31437;58.350;13.828;2022-09-29T11:52:31;98759.50;;;10.64;100.00
45525;BME280;31437;58.350;13.828;2022-09-29T11:57:48;98763.09;;;10.63;100.00
45525;BME280;31437;58.350;13.828;2022-09-29T12:00:18;98775.84;;;10.79;100.00
45525;BME280;31437;58.350;13.828;2022-09-29T12:18:02;98757.97;;;11.06;100.00
45525;BME280;31437;58.350;13.828;2022-09-29T12:20:31;98755.44;;;11.27;100.00
45525;BME280;31437;58.350;13.828;2022-09-29T12:33:20;98754.63;;;10.82;100.00
45525;BME280;31437;58.350;13.828;2022-09-29T12:43:40;98743.56;;;10.89;100.00
45525;BME280;31437;58.350;13.828;2022-09-29T12:49:02;98747.59;;;10.82;100.00
45525;BME280;31437;58.350;13.828;2022-09-29T13:01:47;98771.06;;;10.50;100.00
45525;BME280;31437;58.350;13.828;2022-09-29T13:35:15;98801.25;;;10.78;100.00
45525;BME280;31437;58.350;13.828;2022-09-29T13:37:52;98797.06;;;10.76;100.00
45525;BME280;31437;58.350;13.828;2022-09-29T13:40:26;98800.41;;;10.66;100.00
45525;BME280;31437;58.350;13.828;2022-09-29T13:42:53;98786.31;;;10.67;100.00
45525;BME280;31437;58.350;13.828;2022-09-29T13:52:54;98791.97;;;10.74;100.00
45525;BME280;31437;58.350;13.828;2022-09-29T13:55:55;98791.47;;;10.69;100.00
45525;BME280;31437;58.350;13.828;2022-09-29T13:58:25;98789.81;;;10.68;100.00
45525;BME280;31437;58.350;13.828;2022-09-29T14:00:51;98791.34;;;10.59;100.00
45525;BME280;31437;58.350;13.828;2022-09-29T14:06:12;98798.97;;;10.62;100.00
45525;BME280;31437;58.350;13.828;2022-09-29T14:08:42;98801.84;;;10.59;100.00
45525;BME280;31437;58.350;13.828;2022-09-29T14:13:45;98802.78;;;10.47;100.00
45525;BME280;31437;58.350;13.828;2022-09-29T14:16:26;98806.56;;;10.43;100.00
45525;BME280;31437;58.350;13.828;2022-09-29T14:24:39;98818.50;;;10.47;100.00
45525;BME280;31437;58.350;13.828;2022-09-29T14:26:50;98823.13;;;10.43;100.00
45525;BME280;31437;58.350;13.828;2022-09-29T14:29:27;98831.47;;;10.49;100.00
45525;BME280;31437;58.350;13.828;2022-09-29T14:31:55;98832.56;;;10.57;100.00
45525;BME280;31437;58.350;13.828;2022-09-29T14:34:22;98829.75;;;10.72;100.00
45525;BME280;31437;58.350;13.828;2022-09-29T14:36:50;98831.53;;;10.82;100.00
45525;BME280;31437;58.350;13.828;2022-09-29T14:39:17;98834.78;;;10.86;100.00
45525;BME280;31437;58.350;13.828;2022-09-29T14:41:43;98820.69;;;10.76;100.00
45525;BME280;31437;58.350;13.828;2022-09-29T14:44:16;98822.13;;;10.68;100.00
45525;BME280;31437;58.350;13.828;2022-09-29T14:50:00;98821.56;;;10.41;100.00
45525;BME280;31437;58.350;13.828;2022-09-29T14:52:54;98820.59;;;10.31;100.00
45525;BME280;31437;58.350;13.828;2022-09-29T15:03:06;98831.34;;;10.15;100.00
45525;BME280;31437;58.350;13.828;2022-09-29T15:05:32;98841.19;;;10.11;100.00
45525;BME280;31437;58.350;13.828;2022-09-29T15:07:58;98851.06;;;10.08;100.00
45525;BME280;31437;58.350;13.828;2022-09-29T15:10:28;98858.44;;;10.02;100.00
45525;BME280;31437;58.350;13.828;2022-09-29T15:13:13;98864.03;;;9.98;100.00
45525;BME280;31437;58.350;13.828;2022-09-29T15:15:39;98861.94;;;9.90;100.00
45525;BME280;31437;58.350;13.828;2022-09-29T15:21:05;98874.25;;;9.77;100.00
45525;BME280;31437;58.350;13.828;2022-09-29T15:26:29;98883.53;;;9.57;100.00
45525;BME280;31437;58.350;13.828;2022-09-29T15:28:56;98900.50;;;9.51;100.00
45525;BME280;31437;58.350;13.828;2022-09-29T15:31:25;98896.00;;;9.41;100.00
45525;BME280;31437;58.350;13.828;2022-09-29T15:33:51;98904.28;;;9.35;100.00
45525;BME280;31437;58.350;13.828;2022-09-29T15:36:22;98902.22;;;9.27;100.00
45525;BME280;31437;58.350;13.828;2022-09-29T15:38:52;98908.09;;;9.18;100.00
45525;BME280;31437;58.350;13.828;2022-09-29T15:41:18;98919.81;;;9.12;100.00
45525;BME280;31437;58.350;13.828;2022-09-29T15:43:52;98914.13;;;9.05;100.00
45525;BME280;31437;58.350;13.828;2022-09-29T15:46:25;98923.66;;;8.94;100.00
45525;BME280;31437;58.350;13.828;2022-09-29T15:51:26;98929.38;;;8.73;100.00
45525;BME280;31437;58.350;13.828;2022-09-29T15:53:51;98946.63;;;8.63;100.00
45525;BME280;31437;58.350;13.828;2022-09-29T15:56:17;98943.03;;;8.51;100.00
45525;BME280;31437;58.350;13.828;2022-09-29T15:58:42;98952.50;;;8.39;100.00
45525;BME280;31437;58.350;13.828;2022-09-29T16:01:10;98960.16;;;8.28;100.00
45525;BME280;31437;58.350;13.828;2022-09-29T16:03:38;98964.00;;;8.23;100.00
45525;BME280;31437;58.350;13.828;2022-09-29T16:06:12;98973.19;;;8.15;100.00
45525;BME280;31437;58.350;13.828;2022-09-29T16:08:42;98974.69;;;8.05;100.00
45525;BME280;31437;58.350;13.828;2022-09-29T16:11:13;98976.84;;;7.99;100.00
45525;BME280;31437;58.350;13.828;2022-09-29T16:13:40;98982.66;;;7.89;100.00
45525;BME280;31437;58.350;13.828;2022-09-29T16:16:10;98993.75;;;7.79;100.00
45525;BME280;31437;58.350;13.828;2022-09-29T16:18:43;99002.44;;;7.65;100.00
45525;BME280;31437;58.350;13.828;2022-09-29T16:21:20;99012.56;;;7.55;100.00
45525;BME280;31437;58.350;13.828;2022-09-29T16:23:47;99019.38;;;7.43;100.00
45525;BME280;31437;58.350;13.828;2022-09-29T16:29:05;99047.50;;;7.24;100.00
45525;BME280;31437;58.350;13.828;2022-09-29T16:31:28;99058.53;;;7.13;100.00
45525;BME280;31437;58.350;13.828;2022-09-29T16:33:55;99073.06;;;7.03;100.00
45525;BME280;31437;58.350;13.828;2022-09-29T16:54:24;99154.28;;;6.48;100.00
45525;BME280;31437;58.350;13.828;2022-09-29T16:57:08;99164.03;;;6.44;100.00
45525;BME280;31437;58.350;13.828;2022-09-29T16:59:33;99178.06;;;6.42;100.00
45525;BME280;31437;58.350;13.828;2022-09-29T17:01:59;99192.75;;;6.43;100.00
45525;BME280;31437;58.350;13.828;2022-09-29T17:04:24;99207.56;;;6.42;100.00
45525;BME280;31437;58.350;13.828;2022-09-29T17:06:50;99221.50;;;6.41;100.00
45525;BME280;31437;58.350;13.828;2022-09-29T17:11:50;99247.47;;;6.43;100.00
45525;BME280;31437;58.350;13.828;2022-09-29T17:14:16;99256.91;;;6.45;100.00
45525;BME280;31437;58.350;13.828;2022-09-29T17:16:42;99265.66;;;6.44;100.00
45525;BME280;31437;58.350;13.828;2022-09-29T17:19:09;99270.09;;;6.42;100.00
45525;BME280;31437;58.350;13.828;2022-09-29T17:21:35;99274.84;;;6.34;100.00
45525;BME280;31437;58.350;13.828;2022-09-29T17:24:01;99280.53;;;6.25;100.00
45525;BME280;31437;58.350;13.828;2022-09-29T17:26:45;99290.63;;;6.13;100.00
45525;BME280;31437;58.350;13.828;2022-09-29T17:29:29;99286.09;;;6.00;100.00
45525;BME280;31437;58.350;13.828;2022-09-29T17:31:55;99301.19;;;5.93;100.00
45525;BME280;31437;58.350;13.828;2022-09-29T17:57:37;99367.31;;;5.70;100.00
45525;BME280;31437;58.350;13.828;2022-09-29T18:00:03;99379.50;;;5.69;100.00
45525;BME280;31437;58.350;13.828;2022-09-29T18:02:30;99384.06;;;5.64;100.00
45525;BME280;31437;58.350;13.828;2022-09-29T18:04:56;99397.94;;;5.65;100.00
45525;BME280;31437;58.350;13.828;2022-09-29T18:07:21;99396.31;;;5.62;100.00
45525;BME280;31437;58.350;13.828;2022-09-29T18:09:46;99406.94;;;5.58;100.00
45525;BME280;31437;58.350;13.828;2022-09-29T18:12:12;99417.56;;;5.53;100.00
45525;BME280;31437;58.350;13.828;2022-09-29T18:14:37;99405.72;;;5.46;100.00
45525;BME280;31437;58.350;13.828;2022-09-29T18:17:03;99417.41;;;5.37;100.00
45525;BME280;31437;58.350;13.828;2022-09-29T18:19:32;99420.38;;;5.30;100.00
45525;BME280;31437;58.350;13.828;2022-09-29T18:22:03;99429.97;;;5.28;100.00
45525;BME280;31437;58.350;13.828;2022-09-29T18:24:30;99440.88;;;5.36;100.00
45525;BME280;31437;58.350;13.828;2022-09-29T18:26:56;99445.88;;;5.40;100.00
45525;BME280;31437;58.350;13.828;2022-09-29T18:29:21;99451.06;;;5.40;100.00
45525;BME280;31437;58.350;13.828;2022-09-29T18:31:47;99459.56;;;5.44;100.00
45525;BME280;31437;58.350;13.828;2022-09-29T18:34:16;99456.97;;;5.44;100.00
45525;BME280;31437;58.350;13.828;2022-09-29T18:36:42;99464.59;;;5.49;100.00
45525;BME280;31437;58.350;13.828;2022-09-29T18:39:09;99466.63;;;5.42;100.00
45525;BME280;31437;58.350;13.828;2022-09-29T18:41:34;99471.56;;;5.48;100.00
45525;BME280;31437;58.350;13.828;2022-09-29T18:46:40;99475.00;;;5.49;100.00
45525;BME280;31437;58.350;13.828;2022-09-29T18:51:50;99485.88;;;5.38;100.00
45525;BME280;31437;58.350;13.828;2022-09-29T18:56:51;99478.72;;;5.22;100.00
45525;BME280;31437;58.350;13.828;2022-09-29T18:59:16;99489.34;;;5.18;100.00
45525;BME280;31437;58.350;13.828;2022-09-29T19:01:41;99489.53;;;5.13;100.00
45525;BME280;31437;58.350;13.828;2022-09-29T19:04:07;99483.81;;;5.05;100.00
45525;BME280;31437;58.350;13.828;2022-09-29T19:06:33;99491.75;;;5.02;100.00
45525;BME280;31437;58.350;13.828;2022-09-29T19:08:58;99495.31;;;4.99;100.00
45525;BME280;31437;58.350;13.828;2022-09-29T19:11:24;99496.22;;;4.98;100.00
45525;BME280;31437;58.350;13.828;2022-09-29T19:13:50;99505.00;;;4.96;100.00
45525;BME280;31437;58.350;13.828;2022-09-29T19:16:20;99504.03;;;4.98;100.00
45525;BME280;31437;58.350;13.828;2022-09-29T19:21:20;99521.38;;;4.98;100.00
45525;BME280;31437;58.350;13.828;2022-09-29T19:23:46;99521.19;;;5.03;100.00
45525;BME280;31437;58.350;13.828;2022-09-29T19:26:13;99522.06;;;5.03;100.00
45525;BME280;31437;58.350;13.828;2022-09-29T19:28:39;99528.25;;;4.99;100.00
45525;BME280;31437;58.350;13.828;2022-09-29T19:31:05;99528.59;;;4.91;100.00
45525;BME280;31437;58.350;13.828;2022-09-29T19:48:58;99539.13;;;4.66;100.00
45525;BME280;31437;58.350;13.828;2022-09-29T20:19:50;99588.31;;;4.49;100.00
45525;BME280;31437;58.350;13.828;2022-09-29T20:22:15;99586.56;;;4.49;100.00
45525;BME280;31437;58.350;13.828;2022-09-29T20:24:40;99589.16;;;4.49;100.00
45525;BME280;31437;58.350;13.828;2022-09-29T20:27:05;99590.66;;;4.55;100.00
45525;BME280;31437;58.350;13.828;2022-09-29T20:29:31;99595.75;;;4.58;100.00
45525;BME280;31437;58.350;13.828;2022-09-29T20:31:56;99600.81;;;4.61;100.00
45525;BME280;31437;58.350;13.828;2022-09-29T20:34:21;99594.72;;;4.62;100.00
45525;BME280;31437;58.350;13.828;2022-09-29T20:36:47;99605.88;;;4.64;100.00
45525;BME280;31437;58.350;13.828;2022-09-29T20:39:13;99614.56;;;4.65;100.00
45525;BME280;31437;58.350;13.828;2022-09-29T20:41:38;99622.34;;;4.65;100.00
45525;BME280;31437;58.350;13.828;2022-09-29T20:44:04;99625.66;;;4.68;100.00
45525;BME280;31437;58.350;13.828;2022-09-29T20:46:29;99629.03;;;4.70;100.00
45525;BME280;31437;58.350;13.828;2022-09-29T20:48:55;99629.03;;;4.70;100.00
45525;BME280;31437;58.350;13.828;2022-09-29T20:51:21;99631.63;;;4.70;100.00
45525;BME280;31437;58.350;13.828;2022-09-29T20:56:16;99631.47;;;4.75;100.00
45525;BME280;31437;58.350;13.828;2022-09-29T20:58:42;99628.75;;;4.78;100.00
45525;BME280;31437;58.350;13.828;2022-09-29T21:01:16;99627.78;;;4.81;100.00
45525;BME280;31437;58.350;13.828;2022-09-29T21:03:42;99632.97;;;4.81;100.00
45525;BME280;31437;58.350;13.828;2022-09-29T21:06:08;99627.91;;;4.77;100.00
45525;BME280;31437;58.350;13.828;2022-09-29T21:08:33;99630.53;;;4.76;100.00
45525;BME280;31437;58.350;13.828;2022-09-29T21:11:03;99631.47;;;4.75;100.00
45525;BME280;31437;58.350;13.828;2022-09-29T21:13:30;99640.19;;;4.74;100.00
45525;BME280;31437;58.350;13.828;2022-09-29T21:15:56;99635.09;;;4.71;100.00
45525;BME280;31437;58.350;13.828;2022-09-29T21:18:22;99639.53;;;4.67;100.00
45525;BME280;31437;58.350;13.828;2022-09-29T21:20:47;99642.34;;;4.63;100.00
45525;BME280;31437;58.350;13.828;2022-09-29T21:23:13;99643.41;;;4.57;100.00
45525;BME280;31437;58.350;13.828;2022-09-29T21:25:39;99639.41;;;4.48;100.00
45525;BME280;31437;58.350;13.828;2022-09-29T21:28:04;99637.97;;;4.41;100.00
45525;BME280;31437;58.350;13.828;2022-09-29T21:30:30;99647.66;;;4.36;100.00
45525;BME280;31437;58.350;13.828;2022-09-29T21:32:55;99647.84;;;4.31;100.00
45525;BME280;31437;58.350;13.828;2022-09-29T21:35:20;99647.94;;;4.28;100.00
45525;BME280;31437;58.350;13.828;2022-09-29T21:37:45;99650.53;;;4.28;100.00
45525;BME280;31437;58.350;13.828;2022-09-29T21:40:11;99654.91;;;4.28;100.00
45525;BME280;31437;58.350;13.828;2022-09-29T21:42:36;99654.78;;;4.31;100.00
45525;BME280;31437;58.350;13.828;2022-09-29T21:45:01;99660.78;;;4.33;100.00
45525;BME280;31437;58.350;13.828;2022-09-29T21:47:27;99658.09;;;4.35;100.00
45525;BME280;31437;58.350;13.828;2022-09-29T21:50:12;99658.09;;;4.35;100.00
45525;BME280;31437;58.350;13.828;2022-09-29T21:52:37;99661.44;;;4.38;100.00
45525;BME280;31437;58.350;13.828;2022-09-29T21:55:02;99670.09;;;4.39;100.00
45525;BME280;31437;58.350;13.828;2022-09-29T21:57:28;99669.13;;;4.41;100.00
45525;BME280;31437;58.350;13.828;2022-09-29T21:59:53;99677.75;;;4.42;100.00
45525;BME280;31437;58.350;13.828;2022-09-29T22:02:18;99675.81;;;4.47;100.00
45525;BME280;31437;58.350;13.828;2022-09-29T22:04:44;99688.66;;;4.51;100.00
45525;BME280;31437;58.350;13.828;2022-09-29T22:07:09;99684.19;;;4.55;100.00
45525;BME280;31437;58.350;13.828;2022-09-29T22:09:34;99690.06;;;4.60;100.00
45525;BME280;31437;58.350;13.828;2022-09-29T22:11:59;99692.59;;;4.62;100.00
45525;BME280;31437;58.350;13.828;2022-09-29T22:14:25;99690.78;;;4.64;100.00
45525;BME280;31437;58.350;13.828;2022-09-29T22:16:50;99691.63;;;4.64;100.00
45525;BME280;31437;58.350;13.828;2022-09-29T22:19:16;99697.75;;;4.63;100.00
45525;BME280;31437;58.350;13.828;2022-09-29T22:21:41;99689.94;;;4.63;100.00
45525;BME280;31437;58.350;13.828;2022-09-29T22:24:08;99690.66;;;4.67;100.00
45525;BME280;31437;58.350;13.828;2022-09-29T22:26:34;99699.31;;;4.67;100.00
45525;BME280;31437;58.350;13.828;2022-09-29T22:29:01;99697.63;;;4.66;100.00
45525;BME280;31437;58.350;13.828;2022-09-29T22:31:27;99694.19;;;4.66;100.00
45525;BME280;31437;58.350;13.828;2022-09-29T22:33:54;99691.63;;;4.64;100.00
45525;BME280;31437;58.350;13.828;2022-09-29T22:36:21;99702.09;;;4.63;100.00
45525;BME280;31437;58.350;13.828;2022-09-29T22:38:46;99697.97;;;4.57;100.00
45525;BME280;31437;58.350;13.828;2022-09-29T22:41:16;99695.50;;;4.54;100.00
45525;BME280;31437;58.350;13.828;2022-09-29T22:43:41;99695.53;;;4.52;100.00
45525;BME280;31437;58.350;13.828;2022-09-29T22:46:07;99693.84;;;4.51;100.00
45525;BME280;31437;58.350;13.828;2022-09-29T22:48:35;99699.19;;;4.47;100.00
45525;BME280;31437;58.350;13.828;2022-09-29T22:51:01;99691.63;;;4.41;100.00
45525;BME280;31437;58.350;13.828;2022-09-29T22:53:27;99692.69;;;4.35;100.00
45525;BME280;31437;58.350;13.828;2022-09-29T22:55:52;99697.16;;;4.31;100.00
45525;BME280;31437;58.350;13.828;2022-09-29T22:58:17;99687.00;;;4.25;100.00
45525;BME280;31437;58.350;13.828;2022-09-29T23:00:42;99688.03;;;4.21;100.00
45525;BME280;31437;58.350;13.828;2022-09-29T23:03:08;99689.03;;;4.17;100.00
45525;BME280;31437;58.350;13.828;2022-09-29T23:05:36;99692.88;;;4.07;100.00
45525;BME280;31437;58.350;13.828;2022-09-29T23:08:02;99686.34;;;3.95;100.00
45525;BME280;31437;58.350;13.828;2022-09-29T23:10:27;99692.59;;;3.90;100.00
45525;BME280;31437;58.350;13.828;2022-09-29T23:12:53;99700.41;;;3.88;100.00
45525;BME280;31437;58.350;13.828;2022-09-29T23:15:19;99686.09;;;3.78;100.00
45525;BME280;31437;58.350;13.828;2022-09-29T23:17:45;99688.78;;;3.75;100.00
45525;BME280;31437;58.350;13.828;2022-09-29T23:20:10;99692.31;;;3.72;100.00
45525;BME280;31437;58.350;13.828;2022-09-29T23:22:35;99691.63;;;3.67;100.00
45525;BME280;31437;58.350;13.828;2022-09-29T23:25:01;99690.84;;;3.65;100.00
45525;BME280;31437;58.350;13.828;2022-09-29T23:27:28;99695.03;;;3.69;100.00
45525;BME280;31437;58.350;13.828;2022-09-29T23:29:53;99695.88;;;3.70;100.00
45525;BME280;31437;58.350;13.828;2022-09-29T23:32:19;99693.13;;;3.74;100.00
45525;BME280;31437;58.350;13.828;2022-09-29T23:34:44;99704.34;;;3.75;100.00
45525;BME280;31437;58.350;13.828;2022-09-29T23:37:09;99694.91;;;3.72;100.00
45525;BME280;31437;58.350;13.828;2022-09-29T23:39:34;99692.47;;;3.68;100.00
45525;BME280;31437;58.350;13.828;2022-09-29T23:42:00;99689.13;;;3.64;100.00
45525;BME280;31437;58.350;13.828;2022-09-29T23:44:27;99685.88;;;3.59;100.00
45525;BME280;31437;58.350;13.828;2022-09-29T23:46:53;99687.59;;;3.58;100.00
45525;BME280;31437;58.350;13.828;2022-09-29T23:49:20;99694.41;;;3.62;100.00
45525;BME280;31437;58.350;13.828;2022-09-29T23:51:50;99701.06;;;3.70;100.00
45525;BME280;31437;58.350;13.828;2022-09-29T23:54:17;99703.50;;;3.74;100.00
45525;BME280;31437;58.350;13.828;2022-09-29T23:56:43;99707.69;;;3.78;100.00
45525;BME280;31437;58.350;13.828;2022-09-29T23:59:09;99704.19;;;3.79;100.00
